Time;durP1;ratioP1;P1;durP2;ratioP2;P2;SDS_P1;SDS_P2;PMS_P1;PMS_P2;Temp;Humidity;BMP_temperature;BMP_pressure;BME280_temperature;BME280_humidity;BME280_pressure;Samples;Min_cycle;Max_cycle;Signal;HPM_P1;HPM_P2
2022/10/27 00:00:27;;;;;;;17.67;8.45;;;;;;;;;;4981309;28;20031;-68
2022/10/27 00:02:53;;;;;;;18.10;9.07;;;;;;;;;;4978895;28;20031;-68
2022/10/27 00:05:21;;;;;;;15.15;8.30;;;;;;;;;;4979889;28;20031;-69
2022/10/27 00:07:47;;;;;;;19.52;9.10;;;;;;;;;;4982622;28;20108;-68
2022/10/27 00:10:13;;;;;;;18.20;9.23;;;;;;;;;;4967477;28;20504;-68
2022/10/27 00:12:39;;;;;;;23.73;11.70;;;;;;;;;;4981765;28;20022;-68
2022/10/27 00:15:06;;;;;;;24.15;11.15;;;;;;;;;;4983282;28;20557;-68
2022/10/27 00:17:32;;;;;;;21.35;11.23;;;;;;;;;;4981544;28;20120;-68
2022/10/27 00:19:58;;;;;;;24.23;12.50;;;;;;;;;;4982813;28;20053;-68
2022/10/27 00:22:24;;;;;;;28.27;12.90;;;;;;;;;;4982297;28;20485;-70
2022/10/27 00:24:50;;;;;;;24.17;13.88;;;;;;;;;;4984188;28;20026;-68
2022/10/27 00:27:16;;;;;;;24.70;14.43;;;;;;;;;;4979291;28;20540;-69
2022/10/27 00:29:42;;;;;;;23.02;15.23;;;;;;;;;;4987431;28;20042;-68
2022/10/27 00:32:08;;;;;;;27.60;15.45;;;;;;;;;;4983922;28;20535;-68
2022/10/27 00:34:34;;;;;;;25.88;15.15;;;;;;;;;;4985188;28;20037;-69
2022/10/27 00:37:00;;;;;;;28.33;15.25;;;;;;;;;;4981272;28;20038;-69
2022/10/27 00:39:26;;;;;;;34.97;16.48;;;;;;;;;;4953471;28;20085;-69
2022/10/27 00:41:52;;;;;;;28.83;15.90;;;;;;;;;;4983875;28;20031;-68
2022/10/27 00:44:33;;;;;;;27.85;16.40;;;;;;;;;;4969745;28;20424;-68
2022/10/27 00:47:01;;;;;;;29.45;17.73;;;;;;;;;;4983933;28;20030;-68
2022/10/27 00:49:29;;;;;;;33.20;17.58;;;;;;;;;;4971474;28;20027;-69
2022/10/27 00:52:13;;;;;;;35.13;17.08;;;;;;;;;;4966264;28;20032;-69
2022/10/27 00:54:40;;;;;;;36.35;17.75;;;;;;;;;;4988462;28;20555;-69
2022/10/27 00:57:08;;;;;;;32.78;18.25;;;;;;;;;;4986443;28;20034;-68
2022/10/27 00:59:35;;;;;;;30.83;17.65;;;;;;;;;;4989421;28;20081;-68
2022/10/27 01:02:01;;;;;;;33.35;19.50;;;;;;;;;;4986621;28;20033;-69
2022/10/27 01:04:32;;;;;;;34.13;19.30;;;;;;;;;;4980511;28;20039;-68
2022/10/27 01:06:58;;;;;;;;;;;;;;;;;;4989562;28;20038;-68
2022/10/27 01:09:24;;;;;;;39.03;20.20;;;;;;;;;;4987572;28;20311;-69
2022/10/27 01:11:50;;;;;;;45.00;23.00;;;;;;;;;;4984364;28;20511;-69
2022/10/27 01:14:16;;;;;;;38.63;20.38;;;;;;;;;;4984828;28;20049;-68
2022/10/27 01:16:59;;;;;;;35.22;21.88;;;;;;;;;;4966959;28;20097;-67
2022/10/27 01:19:25;;;;;;;40.63;21.48;;;;;;;;;;4984729;28;20019;-69
2022/10/27 01:21:59;;;;;;;42.70;22.52;;;;;;;;;;4986854;28;20486;-67
2022/10/27 01:24:28;;;;;;;41.03;21.70;;;;;;;;;;4972298;28;20030;-67
2022/10/27 01:27:03;;;;;;;43.83;24.42;;;;;;;;;;4988528;28;20039;-67
2022/10/27 01:29:52;;;;;;;41.38;21.58;;;;;;;;;;4992610;28;20034;-68
2022/10/27 01:32:17;;;;;;;40.05;21.70;;;;;;;;;;4973974;28;20053;-67
2022/10/27 01:34:55;;;;;;;46.85;21.63;;;;;;;;;;4978811;28;20108;-68
2022/10/27 01:37:30;;;;;;;40.00;22.48;;;;;;;;;;4988666;28;20030;-67
2022/10/27 01:39:59;;;;;;;38.70;20.67;;;;;;;;;;4972889;28;20069;-69
2022/10/27 01:42:37;;;;;;;40.65;22.10;;;;;;;;;;4992166;28;20033;-67
2022/10/27 01:45:05;;;;;;;47.10;20.33;;;;;;;;;;4993439;28;20485;-67
2022/10/27 01:47:31;;;;;;;37.25;20.35;;;;;;;;;;4991465;28;20117;-67
2022/10/27 01:49:57;;;;;;;43.58;22.75;;;;;;;;;;4992009;28;20505;-70
2022/10/27 01:52:42;;;;;;;39.88;21.90;;;;;;;;;;4990149;28;20060;-68
2022/10/27 01:55:20;;;;;;;50.70;21.63;;;;;;;;;;4974032;28;20137;-68
2022/10/27 01:57:57;;;;;;;40.60;22.88;;;;;;;;;;4992624;28;20113;-67
2022/10/27 02:00:23;;;;;;;36.65;21.58;;;;;;;;;;4972816;28;20132;-67
2022/10/27 02:03:00;;;;;;;44.67;22.60;;;;;;;;;;4974244;28;20031;-67
2022/10/27 02:05:38;;;;;;;41.80;21.55;;;;;;;;;;4992700;28;20100;-67
2022/10/27 02:08:07;;;;;;;50.50;23.10;;;;;;;;;;4991177;28;20045;-67
2022/10/27 02:10:48;;;;;;;45.05;22.13;;;;;;;;;;4988794;28;20026;-67
2022/10/27 02:13:14;;;;;;;49.58;23.08;;;;;;;;;;4990881;28;20030;-68
2022/10/27 02:15:46;;;;;;;49.40;21.45;;;;;;;;;;4974576;28;20501;-69
2022/10/27 02:18:15;;;;;;;48.65;20.98;;;;;;;;;;4990640;28;20046;-68
2022/10/27 02:20:43;;;;;;;42.28;22.55;;;;;;;;;;4973427;28;20161;-68
2022/10/27 02:23:12;;;;;;;47.35;21.08;;;;;;;;;;4989191;28;20560;-68
2022/10/27 02:25:42;;;;;;;40.03;20.42;;;;;;;;;;4990039;28;20122;-68
2022/10/27 02:28:09;;;;;;;48.50;22.38;;;;;;;;;;4990424;28;20084;-68
2022/10/27 02:30:37;;;;;;;44.17;21.73;;;;;;;;;;4989160;28;20489;-68
2022/10/27 02:33:03;;;;;;;48.38;23.45;;;;;;;;;;4992622;28;20026;-69
2022/10/27 02:35:30;;;;;;;43.67;21.17;;;;;;;;;;4991920;28;20068;-69
2022/10/27 02:37:58;;;;;;;51.22;21.88;;;;;;;;;;4988733;28;20058;-69
2022/10/27 02:40:24;;;;;;;51.05;20.90;;;;;;;;;;4984699;28;20165;-69
2022/10/27 02:42:50;;;;;;;41.35;21.23;;;;;;;;;;4990015;28;20524;-68
2022/10/27 02:45:16;;;;;;;47.20;21.60;;;;;;;;;;4992207;28;20122;-69
2022/10/27 02:47:42;;;;;;;51.00;22.40;;;;;;;;;;4992353;28;20079;-69
2022/10/27 02:50:08;;;;;;;41.10;20.80;;;;;;;;;;4991899;28;20108;-69
2022/10/27 02:52:34;;;;;;;47.67;20.35;;;;;;;;;;4989451;28;20039;-69
2022/10/27 02:55:00;;;;;;;51.45;23.13;;;;;;;;;;4992020;28;20089;-68
2022/10/27 02:57:26;;;;;;;47.05;22.73;;;;;;;;;;4989414;28;20465;-68
2022/10/27 02:59:52;;;;;;;49.13;23.27;;;;;;;;;;4990476;28;20277;-68
2022/10/27 03:02:19;;;;;;;47.95;21.38;;;;;;;;;;4985771;28;20026;-68
2022/10/27 03:04:45;;;;;;;47.90;23.08;;;;;;;;;;4974758;28;20038;-67
2022/10/27 03:07:10;;;;;;;42.25;22.35;;;;;;;;;;4989508;28;20157;-67
2022/10/27 03:09:36;;;;;;;50.75;22.90;;;;;;;;;;4991187;28;20027;-67
2022/10/27 03:12:03;;;;;;;42.38;22.65;;;;;;;;;;4964383;28;20077;-67
2022/10/27 03:14:30;;;;;;;46.03;22.63;;;;;;;;;;4992754;28;20029;-68
2022/10/27 03:16:56;;;;;;;49.65;24.25;;;;;;;;;;4990764;28;20486;-68
2022/10/27 03:19:22;;;;;;;57.15;24.10;;;;;;;;;;4991448;28;20088;-68
2022/10/27 03:21:48;;;;;;;47.60;23.77;;;;;;;;;;4988007;28;20034;-69
2022/10/27 03:24:14;;;;;;;49.53;24.00;;;;;;;;;;4990818;28;20052;-69
2022/10/27 03:26:40;;;;;;;62.75;24.90;;;;;;;;;;4990221;28;20042;-68
2022/10/27 03:29:06;;;;;;;55.33;24.48;;;;;;;;;;4990711;28;20049;-68
2022/10/27 03:31:32;;;;;;;47.30;24.73;;;;;;;;;;4989277;28;20028;-68
2022/10/27 03:33:58;;;;;;;52.05;25.08;;;;;;;;;;4954938;28;20062;-69
2022/10/27 03:36:24;;;;;;;42.80;23.35;;;;;;;;;;4984305;28;20726;-68
2022/10/27 03:38:50;;;;;;;46.17;23.67;;;;;;;;;;4989613;28;20366;-68
2022/10/27 03:41:16;;;;;;;48.38;24.60;;;;;;;;;;4989664;28;20117;-68
2022/10/27 03:43:42;;;;;;;50.35;25.95;;;;;;;;;;4989588;28;20408;-68
2022/10/27 03:46:09;;;;;;;56.67;25.52;;;;;;;;;;4991038;28;20037;-68
2022/10/27 03:48:35;;;;;;;53.70;24.90;;;;;;;;;;4991332;28;20497;-68
2022/10/27 03:51:01;;;;;;;52.28;25.52;;;;;;;;;;4987112;28;20034;-68
2022/10/27 03:53:27;;;;;;;52.08;25.67;;;;;;;;;;4987315;28;20038;-68
2022/10/27 03:55:53;;;;;;;56.08;26.13;;;;;;;;;;4990935;28;20050;-68
2022/10/27 03:58:19;;;;;;;59.22;25.13;;;;;;;;;;4988797;28;20058;-68
2022/10/27 04:00:45;;;;;;;45.85;23.80;;;;;;;;;;4988797;28;20092;-69
2022/10/27 04:03:12;;;;;;;47.25;23.85;;;;;;;;;;4988764;28;20027;-68
2022/10/27 04:05:38;;;;;;;55.35;24.75;;;;;;;;;;4990265;28;20077;-68
2022/10/27 04:08:04;;;;;;;53.65;24.35;;;;;;;;;;4990385;28;20290;-69
2022/10/27 04:10:30;;;;;;;51.53;23.33;;;;;;;;;;4987595;28;20045;-68
2022/10/27 04:12:57;;;;;;;53.15;23.85;;;;;;;;;;4989760;28;20196;-69
2022/10/27 04:15:24;;;;;;;50.97;24.15;;;;;;;;;;4988241;28;20373;-69
2022/10/27 04:17:56;;;;;;;48.65;24.27;;;;;;;;;;4989075;28;20069;-69
2022/10/27 04:20:22;;;;;;;55.72;24.20;;;;;;;;;;4993490;28;20022;-69
2022/10/27 04:22:48;;;;;;;52.60;24.52;;;;;;;;;;4994820;28;20038;-69
2022/10/27 04:25:14;;;;;;;48.63;25.67;;;;;;;;;;4976374;28;20034;-68
2022/10/27 04:27:40;;;;;;;50.45;24.48;;;;;;;;;;4990949;28;20030;-68
2022/10/27 04:30:07;;;;;;;44.88;23.73;;;;;;;;;;4993513;28;20068;-68
2022/10/27 04:32:33;;;;;;;48.38;24.15;;;;;;;;;;4973777;28;20086;-68
2022/10/27 04:34:59;;;;;;;48.25;23.75;;;;;;;;;;4994810;28;20160;-68
2022/10/27 04:37:25;;;;;;;46.88;23.63;;;;;;;;;;4993758;28;20125;-68
2022/10/27 04:39:51;;;;;;;47.40;23.80;;;;;;;;;;4991830;28;20030;-68
2022/10/27 04:42:17;;;;;;;51.20;23.80;;;;;;;;;;4974986;28;20037;-69
2022/10/27 04:44:43;;;;;;;46.20;23.88;;;;;;;;;;4991564;28;20022;-69
2022/10/27 04:47:09;;;;;;;58.13;24.67;;;;;;;;;;4993301;28;20042;-69
2022/10/27 04:49:35;;;;;;;42.83;23.23;;;;;;;;;;4993022;28;20053;-69
2022/10/27 04:52:01;;;;;;;48.17;23.20;;;;;;;;;;4992020;28;20046;-69
2022/10/27 04:54:28;;;;;;;39.15;22.30;;;;;;;;;;4975686;28;20481;-69
2022/10/27 04:56:54;;;;;;;46.28;22.05;;;;;;;;;;4992590;28;20089;-69
2022/10/27 04:59:20;;;;;;;48.22;21.63;;;;;;;;;;4993354;28;20062;-69
2022/10/27 05:01:46;;;;;;;46.53;22.52;;;;;;;;;;4990209;28;20023;-69
2022/10/27 05:04:12;;;;;;;37.85;20.95;;;;;;;;;;4994691;28;20445;-69
2022/10/27 05:06:38;;;;;;;55.55;21.33;;;;;;;;;;4989507;28;20026;-69
2022/10/27 05:09:04;;;;;;;45.67;20.60;;;;;;;;;;4991081;28;20035;-68
2022/10/27 05:11:30;;;;;;;40.63;19.00;;;;;;;;;;4991195;28;20251;-68
2022/10/27 05:13:56;;;;;;;34.67;18.83;;;;;;;;;;4975146;28;20570;-69
2022/10/27 05:16:22;;;;;;;37.83;18.70;;;;;;;;;;4988086;28;20114;-68
2022/10/27 05:18:48;;;;;;;28.67;16.50;;;;;;;;;;4987523;28;20034;-69
2022/10/27 05:21:14;;;;;;;39.08;18.33;;;;;;;;;;4993318;28;20467;-69
2022/10/27 05:23:40;;;;;;;39.58;17.95;;;;;;;;;;4993866;28;20023;-69
2022/10/27 05:26:06;;;;;;;32.20;16.90;;;;;;;;;;4992976;28;20041;-69
2022/10/27 05:28:32;;;;;;;29.33;15.95;;;;;;;;;;4991281;28;20042;-68
2022/10/27 05:30:59;;;;;;;31.02;15.95;;;;;;;;;;4991949;28;20035;-68
2022/10/27 05:33:25;;;;;;;36.03;16.98;;;;;;;;;;4974356;28;20064;-69
2022/10/27 05:35:51;;;;;;;31.35;16.35;;;;;;;;;;4987082;28;20030;-69
2022/10/27 05:38:17;;;;;;;34.58;17.30;;;;;;;;;;4989821;28;20636;-69
2022/10/27 05:40:43;;;;;;;32.45;16.67;;;;;;;;;;4975670;28;20113;-69
2022/10/27 05:43:10;;;;;;;38.00;18.00;;;;;;;;;;4991925;28;20042;-69
2022/10/27 05:45:37;;;;;;;31.27;16.05;;;;;;;;;;4993290;28;20034;-69
2022/10/27 05:48:04;;;;;;;33.13;15.95;;;;;;;;;;4993023;28;20042;-69
2022/10/27 05:50:31;;;;;;;36.67;16.67;;;;;;;;;;4992253;28;20030;-70
2022/10/27 05:52:57;;;;;;;30.52;15.55;;;;;;;;;;4993140;28;20042;-69
2022/10/27 05:55:23;;;;;;;30.13;15.05;;;;;;;;;;4993425;28;20045;-69
2022/10/27 05:57:53;;;;;;;29.10;16.00;;;;;;;;;;4979426;28;20031;-68
2022/10/27 06:00:19;;;;;;;33.30;15.88;;;;;;;;;;4975689;28;20106;-68
2022/10/27 06:02:45;;;;;;;30.27;16.45;;;;;;;;;;4974445;28;20034;-68
2022/10/27 06:05:11;;;;;;;31.50;16.77;;;;;;;;;;4991440;28;20053;-68
2022/10/27 06:07:37;;;;;;;29.50;15.35;;;;;;;;;;4992488;28;20030;-67
2022/10/27 06:10:03;;;;;;;25.35;14.40;;;;;;;;;;4990320;28;20065;-68
2022/10/27 06:12:29;;;;;;;30.33;15.23;;;;;;;;;;4973098;28;20513;-68
2022/10/27 06:14:55;;;;;;;26.58;14.95;;;;;;;;;;4973490;28;20039;-68
2022/10/27 06:17:21;;;;;;;31.60;15.57;;;;;;;;;;4966109;28;20133;-68
2022/10/27 06:19:47;;;;;;;37.67;15.45;;;;;;;;;;4992677;28;20026;-68
2022/10/27 06:22:13;;;;;;;28.55;13.55;;;;;;;;;;4992356;28;20370;-67
2022/10/27 06:24:39;;;;;;;27.30;13.18;;;;;;;;;;4990194;28;20061;-68
2022/10/27 06:27:05;;;;;;;26.23;13.13;;;;;;;;;;4988801;28;20567;-68
2022/10/27 06:29:31;;;;;;;23.00;13.15;;;;;;;;;;4974520;28;20037;-68
2022/10/27 06:31:57;;;;;;;24.08;14.27;;;;;;;;;;4980515;28;20549;-68
2022/10/27 06:34:23;;;;;;;23.17;12.68;;;;;;;;;;4973753;28;20096;-68
2022/10/27 06:36:49;;;;;;;26.75;13.18;;;;;;;;;;4991911;28;20494;-68
2022/10/27 06:39:15;;;;;;;28.65;12.55;;;;;;;;;;4958336;28;20046;-68
2022/10/27 06:41:41;;;;;;;26.73;12.07;;;;;;;;;;4971896;28;20074;-68
2022/10/27 06:44:07;;;;;;;27.58;12.52;;;;;;;;;;4972806;28;20106;-68
2022/10/27 06:46:35;;;;;;;23.15;13.05;;;;;;;;;;4986591;28;20086;-68
2022/10/27 06:49:00;;;;;;;27.80;13.32;;;;;;;;;;4990734;28;20069;-68
2022/10/27 06:51:26;;;;;;;26.83;13.35;;;;;;;;;;4990842;28;20043;-68
2022/10/27 06:53:52;;;;;;;24.60;13.18;;;;;;;;;;4991170;28;20023;-69
2022/10/27 06:56:18;;;;;;;28.08;13.73;;;;;;;;;;4991451;28;20076;-68
2022/10/27 06:58:47;;;;;;;24.08;13.23;;;;;;;;;;4991298;28;20078;-69
2022/10/27 07:01:15;;;;;;;22.95;12.35;;;;;;;;;;4990068;28;20037;-70
2022/10/27 07:03:41;;;;;;;23.40;11.85;;;;;;;;;;4988340;28;20088;-68
2022/10/27 07:06:07;;;;;;;23.25;11.13;;;;;;;;;;4974275;28;20066;-67
2022/10/27 07:08:33;;;;;;;22.17;10.73;;;;;;;;;;4990964;28;20034;-68
2022/10/27 07:10:59;;;;;;;17.35;10.18;;;;;;;;;;4990719;28;20041;-68
2022/10/27 07:13:25;;;;;;;20.75;10.75;;;;;;;;;;4991311;28;20037;-68
2022/10/27 07:15:51;;;;;;;18.98;10.48;;;;;;;;;;4974334;28;20030;-68
2022/10/27 07:18:17;;;;;;;21.02;10.95;;;;;;;;;;4991051;28;20530;-67
2022/10/27 07:20:45;;;;;;;21.20;10.93;;;;;;;;;;4990298;28;20027;-67
2022/10/27 07:23:12;;;;;;;19.00;10.25;;;;;;;;;;4988534;28;20022;-68
2022/10/27 07:25:38;;;;;;;20.13;10.95;;;;;;;;;;4989761;28;20034;-68
2022/10/27 07:28:05;;;;;;;15.05;10.45;;;;;;;;;;4991126;28;20052;-68
2022/10/27 07:30:37;;;;;;;19.48;11.15;;;;;;;;;;4991116;28;20072;-68
2022/10/27 07:33:03;;;;;;;17.48;10.63;;;;;;;;;;4988745;28;20054;-68
2022/10/27 07:35:32;;;;;;;19.92;10.45;;;;;;;;;;4990685;28;20114;-68
2022/10/27 07:37:58;;;;;;;20.35;10.48;;;;;;;;;;4986643;28;20030;-68
2022/10/27 07:40:24;;;;;;;19.58;9.60;;;;;;;;;;4975035;28;20093;-68
2022/10/27 07:42:52;;;;;;;17.98;9.25;;;;;;;;;;4972867;28;20729;-68
2022/10/27 07:45:19;;;;;;;24.85;9.63;;;;;;;;;;4989740;28;20048;-68
2022/10/27 07:47:49;;;;;;;15.75;8.80;;;;;;;;;;4986412;28;20031;-68
2022/10/27 07:50:16;;;;;;;15.27;8.63;;;;;;;;;;4972334;28;20030;-68
2022/10/27 07:52:42;;;;;;;12.63;8.18;;;;;;;;;;4989228;28;20049;-68
2022/10/27 07:55:08;;;;;;;13.93;8.80;;;;;;;;;;4990547;28;20034;-68
2022/10/27 07:57:34;;;;;;;12.55;8.10;;;;;;;;;;4985320;28;20117;-68
2022/10/27 08:00:00;;;;;;;17.55;8.10;;;;;;;;;;4982550;28;20058;-69
2022/10/27 08:02:26;;;;;;;13.98;8.23;;;;;;;;;;4986816;28;20035;-68
2022/10/27 08:04:53;;;;;;;12.75;7.50;;;;;;;;;;4990243;28;20027;-68
2022/10/27 08:07:19;;;;;;;11.82;7.28;;;;;;;;;;4989470;28;20026;-68
2022/10/27 08:09:45;;;;;;;15.90;6.82;;;;;;;;;;4972895;28;20080;-69
2022/10/27 08:12:11;;;;;;;11.75;7.35;;;;;;;;;;4989268;28;20057;-69
2022/10/27 08:14:37;;;;;;;12.20;6.43;;;;;;;;;;4973230;28;20037;-67
2022/10/27 08:17:03;;;;;;;13.00;6.15;;;;;;;;;;4973379;28;20042;-68
2022/10/27 08:19:29;;;;;;;13.00;6.78;;;;;;;;;;4988751;28;20031;-68
2022/10/27 08:21:55;;;;;;;14.48;6.40;;;;;;;;;;4978973;28;20038;-68
2022/10/27 08:24:21;;;;;;;10.85;6.07;;;;;;;;;;4989368;28;20080;-68
2022/10/27 08:26:47;;;;;;;15.98;6.55;;;;;;;;;;4990522;28;20481;-68
2022/10/27 08:29:13;;;;;;;12.98;6.60;;;;;;;;;;4971830;28;20393;-68
2022/10/27 08:31:39;;;;;;;10.48;5.70;;;;;;;;;;4971850;28;20030;-68
2022/10/27 08:34:05;;;;;;;10.90;6.28;;;;;;;;;;4990568;28;20033;-68
2022/10/27 08:36:37;;;;;;;11.60;6.05;;;;;;;;;;4988630;28;20553;-68
2022/10/27 08:39:04;;;;;;;18.73;6.22;;;;;;;;;;4970926;28;20205;-69
2022/10/27 08:41:30;;;;;;;11.60;5.35;;;;;;;;;;4989388;28;20557;-68
2022/10/27 08:44:16;;;;;;;12.07;5.88;;;;;;;;;;4967371;28;20126;-68
2022/10/27 08:46:47;;;;;;;11.85;5.57;;;;;;;;;;4993974;28;20022;-68
2022/10/27 08:49:27;;;;;;;9.38;4.90;;;;;;;;;;4991808;28;20118;-68
2022/10/27 08:51:55;;;;;;;10.75;4.20;;;;;;;;;;4989212;28;20844;-68
2022/10/27 08:54:23;;;;;;;7.72;4.30;;;;;;;;;;4984894;28;20255;-68
2022/10/27 08:56:49;;;;;;;9.23;4.88;;;;;;;;;;4970108;28;20097;-68
2022/10/27 08:59:19;;;;;;;11.30;4.93;;;;;;;;;;4988076;28;20491;-70
2022/10/27 09:01:51;;;;;;;11.57;4.50;;;;;;;;;;4984789;28;20038;-68
2022/10/27 09:04:23;;;;;;;9.15;4.13;;;;;;;;;;4988757;28;20045;-70
2022/10/27 09:07:07;;;;;;;6.95;4.53;;;;;;;;;;4993047;28;20027;-68
2022/10/27 09:09:33;;;;;;;11.95;4.57;;;;;;;;;;4993326;28;20049;-68
2022/10/27 09:12:03;;;;;;;10.57;5.22;;;;;;;;;;4992883;28;20489;-70
2022/10/27 09:14:29;;;;;;;22.95;6.60;;;;;;;;;;4993955;28;20030;-70
2022/10/27 09:17:10;;;;;;;8.52;4.20;;;;;;;;;;4994676;28;20048;-68
2022/10/27 09:19:40;;;;;;;9.20;4.35;;;;;;;;;;4991759;28;20588;-70
2022/10/27 09:22:10;;;;;;;10.40;4.80;;;;;;;;;;4991820;28;20034;-68
2022/10/27 09:24:36;;;;;;;13.40;5.18;;;;;;;;;;4993206;28;20026;-69
2022/10/27 09:27:03;;;;;;;6.07;4.10;;;;;;;;;;4993817;28;20544;-70
2022/10/27 09:29:30;;;;;;;14.80;4.40;;;;;;;;;;4993858;28;20114;-70
2022/10/27 09:32:16;;;;;;;11.60;5.32;;;;;;;;;;4975268;28;20030;-70
2022/10/27 09:34:48;;;;;;;9.65;4.72;;;;;;;;;;4975596;28;20045;-70
2022/10/27 09:37:15;;;;;;;12.43;5.20;;;;;;;;;;4991829;28;20037;-70
2022/10/27 09:39:43;;;;;;;9.95;5.18;;;;;;;;;;4975008;28;20034;-70
2022/10/27 09:42:09;;;;;;;13.68;4.97;;;;;;;;;;4991166;28;20486;-69
2022/10/27 09:44:36;;;;;;;9.20;4.60;;;;;;;;;;4991440;28;20033;-68
2022/10/27 09:47:05;;;;;;;11.45;5.03;;;;;;;;;;4992751;28;20030;-69
2022/10/27 09:49:38;;;;;;;15.60;5.00;;;;;;;;;;4992481;28;20142;-69
2022/10/27 09:52:11;;;;;;;11.95;4.60;;;;;;;;;;4990713;28;20030;-69
2022/10/27 09:54:41;;;;;;;19.10;4.80;;;;;;;;;;4994351;28;20039;-69
2022/10/27 09:57:12;;;;;;;8.18;4.47;;;;;;;;;;4992266;28;20034;-69
2022/10/27 09:59:38;;;;;;;;;;;;;;;;;;4992690;28;20121;-70
2022/10/27 10:02:22;;;;;;;10.43;4.38;;;;;;;;;;4973618;28;20329;-69
2022/10/27 10:04:48;;;;;;;12.30;4.30;;;;;;;;;;4993228;28;20172;-70
2022/10/27 10:07:32;;;;;;;12.48;4.18;;;;;;;;;;4993208;28;20125;-69
2022/10/27 10:10:03;;;;;;;7.05;4.00;;;;;;;;;;4990093;28;20053;-69
2022/10/27 10:12:29;;;;;;;15.23;4.53;;;;;;;;;;4970327;28;20038;-69
2022/10/27 10:15:10;;;;;;;11.50;4.38;;;;;;;;;;4989186;28;20046;-68
2022/10/27 10:17:37;;;;;;;7.82;4.30;;;;;;;;;;4986412;28;20559;-70
2022/10/27 10:20:05;;;;;;;9.95;4.10;;;;;;;;;;4986900;28;20030;-69
2022/10/27 10:22:32;;;;;;;12.00;4.55;;;;;;;;;;4988521;28;20030;-69
2022/10/27 10:25:00;;;;;;;12.93;4.18;;;;;;;;;;4987322;28;20053;-69
2022/10/27 10:27:28;;;;;;;10.43;3.63;;;;;;;;;;4989125;28;20519;-69
2022/10/27 10:29:55;;;;;;;11.98;3.85;;;;;;;;;;4967761;28;20441;-69
2022/10/27 10:32:23;;;;;;;9.18;3.88;;;;;;;;;;4985414;28;20435;-69
2022/10/27 10:34:52;;;;;;;11.38;5.25;;;;;;;;;;4989176;28;20026;-69
2022/10/27 10:37:42;;;;;;;7.22;3.25;;;;;;;;;;4987296;28;20145;-69
2022/10/27 10:40:15;;;;;;;9.10;3.80;;;;;;;;;;4990101;28;20023;-68
2022/10/27 10:42:45;;;;;;;9.43;4.00;;;;;;;;;;4988981;28;20026;-69
2022/10/27 10:45:21;;;;;;;11.77;3.65;;;;;;;;;;4988615;28;20034;-69
2022/10/27 10:47:50;;;;;;;5.75;3.20;;;;;;;;;;4991864;28;20022;-69
2022/10/27 10:50:16;;;;;;;10.25;3.95;;;;;;;;;;4987092;28;20026;-70
2022/10/27 10:52:51;;;;;;;10.30;3.42;;;;;;;;;;4991895;28;20054;-70
2022/10/27 10:55:17;;;;;;;5.88;3.35;;;;;;;;;;4992145;28;20027;-70
2022/10/27 10:57:45;;;;;;;10.75;3.20;;;;;;;;;;4991997;28;20034;-70
2022/10/27 11:00:18;;;;;;;13.10;3.75;;;;;;;;;;4989020;28;20050;-70
2022/10/27 11:02:51;;;;;;;7.13;2.90;;;;;;;;;;4989889;28;20496;-70
2022/10/27 11:05:19;;;;;;;11.18;3.30;;;;;;;;;;4990749;28;20105;-70
2022/10/27 11:07:46;;;;;;;7.00;3.30;;;;;;;;;;4991723;28;20084;-70
2022/10/27 11:10:13;;;;;;;9.65;3.25;;;;;;;;;;4991641;28;20038;-70
2022/10/27 11:12:45;;;;;;;15.93;3.30;;;;;;;;;;4990152;28;20750;-71
2022/10/27 11:15:31;;;;;;;6.75;2.72;;;;;;;;;;4991060;28;20121;-71
2022/10/27 11:18:17;;;;;;;9.35;3.08;;;;;;;;;;4990922;28;20060;-68
2022/10/27 11:20:44;;;;;;;12.23;3.15;;;;;;;;;;4981986;28;20162;-70
2022/10/27 11:23:18;;;;;;;7.35;2.80;;;;;;;;;;4989996;28;20100;-70
2022/10/27 11:25:44;;;;;;;8.23;3.30;;;;;;;;;;4991422;28;20040;-70
2022/10/27 11:28:15;;;;;;;7.63;3.05;;;;;;;;;;4989989;28;20027;-70
2022/10/27 11:31:00;;;;;;;14.95;3.38;;;;;;;;;;4970960;28;20065;-70
2022/10/27 11:33:36;;;;;;;5.38;2.80;;;;;;;;;;4981431;28;20033;-70
2022/10/27 11:36:08;;;;;;;7.45;3.08;;;;;;;;;;4989802;28;20037;-71
2022/10/27 11:38:43;;;;;;;9.15;3.08;;;;;;;;;;4990519;28;20089;-70
2022/10/27 11:41:19;;;;;;;9.75;3.42;;;;;;;;;;4984707;28;20093;-71
2022/10/27 11:44:03;;;;;;;7.57;3.75;;;;;;;;;;4990402;28;20474;-70
2022/10/27 11:46:34;;;;;;;10.25;3.70;;;;;;;;;;4989475;28;20029;-70
2022/10/27 11:49:09;;;;;;;8.32;3.20;;;;;;;;;;4989651;28;20026;-71
2022/10/27 11:51:40;;;;;;;9.98;3.25;;;;;;;;;;4971394;28;20177;-70
2022/10/27 11:54:06;;;;;;;12.57;3.80;;;;;;;;;;4987975;28;20061;-70
2022/10/27 11:56:40;;;;;;;8.80;3.60;;;;;;;;;;4972680;28;20121;-70
2022/10/27 11:59:10;;;;;;;6.30;2.83;;;;;;;;;;4984194;28;20058;-70
2022/10/27 12:01:54;;;;;;;12.20;3.47;;;;;;;;;;4983871;28;20095;-71
2022/10/27 12:04:20;;;;;;;11.68;2.95;;;;;;;;;;4986097;28;20026;-69
2022/10/27 12:06:58;;;;;;;6.80;2.92;;;;;;;;;;4958830;28;20056;-70
2022/10/27 12:09:43;;;;;;;10.18;3.13;;;;;;;;;;4972497;28;20030;-70
2022/10/27 12:12:30;;;;;;;10.75;3.20;;;;;;;;;;4976652;28;20109;-70
2022/10/27 12:15:19;;;;;;;8.90;3.35;;;;;;;;;;4984592;28;20486;-70
2022/10/27 12:17:51;;;;;;;12.88;3.50;;;;;;;;;;4979098;28;20057;-70
2022/10/27 12:20:26;;;;;;;14.13;3.60;;;;;;;;;;4987735;28;20053;-71
2022/10/27 12:23:02;;;;;;;9.27;3.28;;;;;;;;;;4985259;28;20103;-70
2022/10/27 12:25:33;;;;;;;8.73;3.42;;;;;;;;;;4986395;28;20128;-70
2022/10/27 12:28:01;;;;;;;12.77;3.60;;;;;;;;;;4984891;28;20129;-68
2022/10/27 12:30:27;;;;;;;9.30;3.17;;;;;;;;;;4973942;28;20029;-69
2022/10/27 12:32:53;;;;;;;14.70;2.85;;;;;;;;;;4986629;28;20048;-69
2022/10/27 12:35:19;;;;;;;6.25;2.80;;;;;;;;;;4992256;28;20038;-69
2022/10/27 12:37:45;;;;;;;7.50;2.60;;;;;;;;;;4982133;28;20088;-68
2022/10/27 12:40:23;;;;;;;7.93;2.80;;;;;;;;;;4986178;28;20521;-69
2022/10/27 12:43:09;;;;;;;7.78;2.42;;;;;;;;;;4984765;28;20015;-69
2022/10/27 12:45:44;;;;;;;8.68;2.70;;;;;;;;;;4976773;28;20513;-69
2022/10/27 12:48:21;;;;;;;7.35;2.60;;;;;;;;;;4976800;28;20035;-69
2022/10/27 12:50:54;;;;;;;9.57;2.80;;;;;;;;;;4982840;28;20042;-71
2022/10/27 12:53:41;;;;;;;9.38;2.72;;;;;;;;;;4987599;28;20500;-71
2022/10/27 12:56:20;;;;;;;12.15;3.00;;;;;;;;;;4991254;28;20049;-71
2022/10/27 12:58:52;;;;;;;7.47;2.55;;;;;;;;;;4983474;28;20033;-71
2022/10/27 13:01:37;;;;;;;6.60;2.80;;;;;;;;;;4989695;28;20105;-69
2022/10/27 13:04:16;;;;;;;10.77;2.83;;;;;;;;;;4985610;28;20034;-70
2022/10/27 13:07:01;;;;;;;10.70;3.50;;;;;;;;;;4990781;28;20112;-71
2022/10/27 13:09:35;;;;;;;8.27;2.70;;;;;;;;;;4985132;28;20053;-69
2022/10/27 13:12:01;;;;;;;4.72;2.42;;;;;;;;;;4984103;28;20045;-70
2022/10/27 13:14:27;;;;;;;7.75;2.50;;;;;;;;;;4981303;28;20022;-70
2022/10/27 13:17:28;;;;;;;12.48;2.63;;;;;;;;;;4984542;28;20486;-70
2022/10/27 13:19:57;;;;;;;10.73;2.78;;;;;;;;;;4950121;28;20125;-70
2022/10/27 13:22:32;;;;;;;10.70;2.88;;;;;;;;;;4975393;28;20035;-69
2022/10/27 13:24:58;;;;;;;6.70;2.45;;;;;;;;;;4979538;28;20034;-70
2022/10/27 13:27:36;;;;;;;10.90;3.15;;;;;;;;;;4979639;28;20053;-69
2022/10/27 13:30:04;;;;;;;11.93;3.33;;;;;;;;;;4981280;28;20046;-69
2022/10/27 13:32:45;;;;;;;7.85;2.95;;;;;;;;;;4985400;28;20092;-69
2022/10/27 13:35:11;;;;;;;9.48;2.70;;;;;;;;;;4980831;28;20084;-70
2022/10/27 13:37:37;;;;;;;9.68;2.83;;;;;;;;;;4982131;28;20040;-71
2022/10/27 13:40:23;;;;;;;9.65;3.13;;;;;;;;;;4983221;28;20034;-71
2022/10/27 13:42:49;;;;;;;9.13;2.50;;;;;;;;;;4983658;28;20026;-69
2022/10/27 13:45:27;;;;;;;13.25;2.80;;;;;;;;;;4982175;28;20037;-68
2022/10/27 13:48:14;;;;;;;12.35;3.10;;;;;;;;;;4978212;28;20038;-69
2022/10/27 13:50:44;;;;;;;16.90;3.20;;;;;;;;;;4978999;28;20038;-69
2022/10/27 13:53:14;;;;;;;14.38;4.18;;;;;;;;;;4983193;28;20138;-72
2022/10/27 13:55:42;;;;;;;6.55;3.03;;;;;;;;;;4984654;28;20057;-71
2022/10/27 13:58:18;;;;;;;10.13;2.80;;;;;;;;;;4980648;28;20137;-71
2022/10/27 14:00:53;;;;;;;11.45;3.28;;;;;;;;;;4984550;28;20129;-69
2022/10/27 14:03:28;;;;;;;8.20;2.80;;;;;;;;;;4985955;28;20026;-69
2022/10/27 14:05:55;;;;;;;11.00;2.85;;;;;;;;;;4976053;28;20382;-70
2022/10/27 14:08:25;;;;;;;10.18;3.20;;;;;;;;;;4959451;28;20279;-70
2022/10/27 14:10:51;;;;;;;;;;;;;;;;;;4986063;28;20058;-69
2022/10/27 14:13:21;;;;;;;6.35;3.03;;;;;;;;;;4979583;28;20488;-69
2022/10/27 14:15:50;;;;;;;7.40;3.00;;;;;;;;;;4982019;28;20092;-70
2022/10/27 14:18:36;;;;;;;9.57;3.22;;;;;;;;;;4980080;28;20038;-69
2022/10/27 14:21:08;;;;;;;9.50;3.05;;;;;;;;;;4986696;28;20042;-70
2022/10/27 14:23:34;;;;;;;12.57;3.03;;;;;;;;;;4982227;28;20132;-69
2022/10/27 14:26:20;;;;;;;11.88;2.88;;;;;;;;;;4980550;28;20097;-69
2022/10/27 14:28:46;;;;;;;13.13;3.03;;;;;;;;;;4962445;28;20081;-69
2022/10/27 14:31:20;;;;;;;8.43;3.10;;;;;;;;;;4966888;28;20038;-69
2022/10/27 14:33:49;;;;;;;9.35;3.45;;;;;;;;;;4983142;28;20488;-70
2022/10/27 14:36:27;;;;;;;11.45;3.05;;;;;;;;;;4983463;28;20038;-70
2022/10/27 14:38:54;;;;;;;7.47;3.13;;;;;;;;;;4985246;28;20124;-69